sensor_id;sensor_type;location;lat;lon;timestamp;pressure;altitude;pressure_sealevel;temperature;humidity
42001;BME280;27689;48.390;10.856;2023-03-11T00:00:35;94890.97;;;3.15;61.26
42001;BME280;27689;48.390;10.856;2023-03-11T00:03:19;94891.91;;;3.14;61.79
42001;BME280;27689;48.390;10.856;2023-03-11T00:06:06;94904.34;;;3.21;61.31
42001;BME280;27689;48.390;10.856;2023-03-11T00:08:50;94892.88;;;3.13;61.31
42001;BME280;27689;48.390;10.856;2023-03-11T00:11:34;94893.81;;;3.12;60.64
42001;BME280;27689;48.390;10.856;2023-03-11T00:14:18;94900.63;;;3.13;61.08
42001;BME280;27689;48.390;10.856;2023-03-11T00:17:02;94903.50;;;3.10;60.97
42001;BME280;27689;48.390;10.856;2023-03-11T00:19:46;94914.00;;;3.18;61.09
42001;BME280;27689;48.390;10.856;2023-03-11T00:22:31;94916.72;;;3.17;61.57
42001;BME280;27689;48.390;10.856;2023-03-11T00:25:15;94919.44;;;3.15;61.51
42001;BME280;27689;48.390;10.856;2023-03-11T00:28:00;94914.53;;;3.12;61.88
42001;BME280;27689;48.390;10.856;2023-03-11T00:30:44;94925.56;;;3.14;61.80
42001;BME280;27689;48.390;10.856;2023-03-11T00:33:29;94924.22;;;3.10;61.53
42001;BME280;27689;48.390;10.856;2023-03-11T00:36:22;94924.72;;;3.04;61.22
42001;BME280;27689;48.390;10.856;2023-03-11T00:39:06;94937.50;;;2.96;60.84
42001;BME280;27689;48.390;10.856;2023-03-11T00:41:51;94898.16;;;2.72;61.68
42001;BME280;27689;48.390;10.856;2023-03-11T00:44:35;94928.69;;;2.78;61.07
42001;BME280;27689;48.390;10.856;2023-03-11T00:47:19;94928.94;;;2.75;61.27
42001;BME280;27689;48.390;10.856;2023-03-11T00:50:04;94925.78;;;2.71;61.41
42001;BME280;27689;48.390;10.856;2023-03-11T00:52:48;94922.22;;;2.63;62.02
42001;BME280;27689;48.390;10.856;2023-03-11T00:55:33;94924.81;;;2.63;61.02
42001;BME280;27689;48.390;10.856;2023-03-11T00:58:17;94925.88;;;2.60;61.53
42001;BME280;27689;48.390;10.856;2023-03-11T01:01:14;94925.06;;;2.60;61.59
42001;BME280;27689;48.390;10.856;2023-03-11T01:03:58;94922.59;;;2.58;61.34
42001;BME280;27689;48.390;10.856;2023-03-11T01:06:42;94920.53;;;2.52;61.30
42001;BME280;27689;48.390;10.856;2023-03-11T01:09:26;94920.09;;;2.47;62.07
42001;BME280;27689;48.390;10.856;2023-03-11T01:12:10;94919.00;;;2.50;61.85
42001;BME280;27689;48.390;10.856;2023-03-11T01:14:54;94909.75;;;2.47;62.17
42001;BME280;27689;48.390;10.856;2023-03-11T01:17:38;94922.47;;;2.39;62.21
42001;BME280;27689;48.390;10.856;2023-03-11T01:20:22;94923.94;;;2.32;62.26
42001;BME280;27689;48.390;10.856;2023-03-11T01:23:06;94939.06;;;2.36;62.49
42001;BME280;27689;48.390;10.856;2023-03-11T01:25:51;94946.13;;;2.34;62.77
42001;BME280;27689;48.390;10.856;2023-03-11T01:28:35;94931.56;;;2.33;62.94
42001;BME280;27689;48.390;10.856;2023-03-11T01:31:18;94931.69;;;2.32;63.74
42001;BME280;27689;48.390;10.856;2023-03-11T01:34:02;94927.59;;;2.29;63.74
42001;BME280;27689;48.390;10.856;2023-03-11T01:36:46;94923.09;;;2.31;63.94
42001;BME280;27689;48.390;10.856;2023-03-11T01:39:30;94916.25;;;2.21;64.50
42001;BME280;27689;48.390;10.856;2023-03-11T01:42:14;94925.94;;;2.07;65.00
42001;BME280;27689;48.390;10.856;2023-03-11T01:44:58;94914.03;;;2.16;64.34
42001;BME280;27689;48.390;10.856;2023-03-11T01:47:42;94917.19;;;2.20;64.66
42001;BME280;27689;48.390;10.856;2023-03-11T01:50:32;94927.72;;;2.07;65.32
42001;BME280;27689;48.390;10.856;2023-03-11T01:53:17;94922.09;;;2.02;66.36
42001;BME280;27689;48.390;10.856;2023-03-11T01:56:02;94915.53;;;1.98;65.36
42001;BME280;27689;48.390;10.856;2023-03-11T01:58:49;94937.06;;;2.08;65.14
42001;BME280;27689;48.390;10.856;2023-03-11T02:01:42;94947.09;;;2.01;65.45
42001;BME280;27689;48.390;10.856;2023-03-11T02:04:32;94936.19;;;1.98;65.72
42001;BME280;27689;48.390;10.856;2023-03-11T02:07:17;94945.56;;;1.99;65.36
42001;BME280;27689;48.390;10.856;2023-03-11T02:10:01;94943.81;;;1.99;65.52
42001;BME280;27689;48.390;10.856;2023-03-11T02:12:45;94967.75;;;2.01;66.09
42001;BME280;27689;48.390;10.856;2023-03-11T02:15:31;94947.88;;;1.81;66.45
42001;BME280;27689;48.390;10.856;2023-03-11T02:18:16;94940.34;;;1.89;66.08
42001;BME280;27689;48.390;10.856;2023-03-11T02:24:16;94959.13;;;1.91;65.45
42001;BME280;27689;48.390;10.856;2023-03-11T02:27:07;94933.78;;;1.85;64.71
42001;BME280;27689;48.390;10.856;2023-03-11T02:29:53;94933.31;;;1.80;65.27
42001;BME280;27689;48.390;10.856;2023-03-11T02:32:40;94938.88;;;1.75;65.77
42001;BME280;27689;48.390;10.856;2023-03-11T02:35:25;94930.06;;;1.78;65.80
42001;BME280;27689;48.390;10.856;2023-03-11T02:38:09;94944.91;;;1.86;65.44
42001;BME280;27689;48.390;10.856;2023-03-11T02:40:54;94940.81;;;1.83;65.64
42001;BME280;27689;48.390;10.856;2023-03-11T02:43:42;94935.69;;;1.72;66.28
42001;BME280;27689;48.390;10.856;2023-03-11T02:46:28;94940.38;;;1.78;66.37
42001;BME280;27689;48.390;10.856;2023-03-11T02:49:13;94943.75;;;1.78;66.49
42001;BME280;27689;48.390;10.856;2023-03-11T02:51:57;94947.97;;;1.80;66.76
42001;BME280;27689;48.390;10.856;2023-03-11T02:54:41;94955.28;;;1.74;66.88
42001;BME280;27689;48.390;10.856;2023-03-11T02:57:25;94965.28;;;1.68;67.64
42001;BME280;27689;48.390;10.856;2023-03-11T03:00:10;94965.06;;;1.49;68.71
42001;BME280;27689;48.390;10.856;2023-03-11T03:02:57;94964.69;;;1.75;67.30
42001;BME280;27689;48.390;10.856;2023-03-11T03:05:42;94956.94;;;1.75;67.65
42001;BME280;27689;48.390;10.856;2023-03-11T03:08:25;94968.34;;;1.62;68.47
42001;BME280;27689;48.390;10.856;2023-03-11T03:11:09;94984.88;;;1.70;68.05
42001;BME280;27689;48.390;10.856;2023-03-11T03:13:53;94989.81;;;1.62;68.80
42001;BME280;27689;48.390;10.856;2023-03-11T03:16:37;94964.69;;;1.64;69.01
42001;BME280;27689;48.390;10.856;2023-03-11T03:19:21;94978.66;;;1.73;68.81
42001;BME280;27689;48.390;10.856;2023-03-11T03:22:05;94973.84;;;1.68;69.05
42001;BME280;27689;48.390;10.856;2023-03-11T03:24:49;94969.34;;;1.82;68.37
42001;BME280;27689;48.390;10.856;2023-03-11T03:27:33;94981.53;;;1.80;68.86
42001;BME280;27689;48.390;10.856;2023-03-11T03:30:18;94998.13;;;1.66;70.17
42001;BME280;27689;48.390;10.856;2023-03-11T03:33:02;95007.19;;;1.60;70.97
42001;BME280;27689;48.390;10.856;2023-03-11T03:35:46;94993.44;;;1.71;70.21
42001;BME280;27689;48.390;10.856;2023-03-11T03:38:30;94984.81;;;1.82;69.96
42001;BME280;27689;48.390;10.856;2023-03-11T03:41:14;94988.13;;;1.84;70.04
42001;BME280;27689;48.390;10.856;2023-03-11T03:43:58;94981.06;;;1.86;69.52
42001;BME280;27689;48.390;10.856;2023-03-11T03:46:42;94993.50;;;1.92;69.90
42001;BME280;27689;48.390;10.856;2023-03-11T03:49:26;95003.13;;;1.90;70.29
42001;BME280;27689;48.390;10.856;2023-03-11T03:52:10;95013.91;;;1.95;70.46
42001;BME280;27689;48.390;10.856;2023-03-11T03:54:54;95018.72;;;1.99;69.88
42001;BME280;27689;48.390;10.856;2023-03-11T03:57:38;95022.22;;;1.98;69.26
42001;BME280;27689;48.390;10.856;2023-03-11T04:00:22;95023.56;;;1.93;68.28
42001;BME280;27689;48.390;10.856;2023-03-11T04:03:06;95024.84;;;1.87;68.12
42001;BME280;27689;48.390;10.856;2023-03-11T04:05:51;95038.50;;;1.78;67.86
42001;BME280;27689;48.390;10.856;2023-03-11T04:08:35;95029.09;;;1.77;67.96
42001;BME280;27689;48.390;10.856;2023-03-11T04:11:20;95020.19;;;1.70;68.04
42001;BME280;27689;48.390;10.856;2023-03-11T04:14:04;95018.88;;;1.64;67.52
42001;BME280;27689;48.390;10.856;2023-03-11T04:16:48;95017.38;;;1.51;67.10
42001;BME280;27689;48.390;10.856;2023-03-11T04:19:32;95032.31;;;1.47;66.80
42001;BME280;27689;48.390;10.856;2023-03-11T04:22:16;95032.06;;;1.39;66.30
42001;BME280;27689;48.390;10.856;2023-03-11T04:25:00;95027.25;;;1.34;64.75
42001;BME280;27689;48.390;10.856;2023-03-11T04:27:44;95038.28;;;1.25;65.65
42001;BME280;27689;48.390;10.856;2023-03-11T04:30:28;95044.47;;;1.23;65.33
42001;BME280;27689;48.390;10.856;2023-03-11T04:33:13;95054.81;;;1.23;63.95
42001;BME280;27689;48.390;10.856;2023-03-11T04:35:57;95044.25;;;1.15;64.02
42001;BME280;27689;48.390;10.856;2023-03-11T04:38:41;95048.69;;;1.13;64.25
42001;BME280;27689;48.390;10.856;2023-03-11T04:41:25;95062.75;;;1.09;63.71
42001;BME280;27689;48.390;10.856;2023-03-11T04:44:09;95058.66;;;1.06;63.72
42001;BME280;27689;48.390;10.856;2023-03-11T04:46:54;95067.09;;;0.97;63.63
42001;BME280;27689;48.390;10.856;2023-03-11T04:49:38;95068.47;;;0.90;64.11
42001;BME280;27689;48.390;10.856;2023-03-11T04:52:22;95078.56;;;0.93;63.77
42001;BME280;27689;48.390;10.856;2023-03-11T04:55:06;95071.63;;;0.82;63.66
42001;BME280;27689;48.390;10.856;2023-03-11T04:57:51;95075.84;;;0.83;63.88
42001;BME280;27689;48.390;10.856;2023-03-11T05:00:35;95077.72;;;0.81;64.52
42001;BME280;27689;48.390;10.856;2023-03-11T05:03:19;95068.91;;;0.73;65.00
42001;BME280;27689;48.390;10.856;2023-03-11T05:06:04;95074.19;;;0.71;65.59
42001;BME280;27689;48.390;10.856;2023-03-11T05:08:48;95076.16;;;0.67;66.12
42001;BME280;27689;48.390;10.856;2023-03-11T05:11:32;95089.97;;;0.66;66.29
42001;BME280;27689;48.390;10.856;2023-03-11T05:14:16;95088.66;;;0.61;67.01
42001;BME280;27689;48.390;10.856;2023-03-11T05:17:00;95094.16;;;0.56;67.63
42001;BME280;27689;48.390;10.856;2023-03-11T05:19:44;95097.56;;;0.57;67.62
42001;BME280;27689;48.390;10.856;2023-03-11T05:22:28;95096.34;;;0.50;67.95
42001;BME280;27689;48.390;10.856;2023-03-11T05:25:13;95108.19;;;0.52;67.75
42001;BME280;27689;48.390;10.856;2023-03-11T05:27:56;95113.94;;;0.56;67.75
42001;BME280;27689;48.390;10.856;2023-03-11T05:30:40;95119.72;;;0.59;67.84
42001;BME280;27689;48.390;10.856;2023-03-11T05:33:24;95123.09;;;0.60;67.51
42001;BME280;27689;48.390;10.856;2023-03-11T05:36:08;95126.84;;;0.56;67.43
42001;BME280;27689;48.390;10.856;2023-03-11T05:38:52;95128.19;;;0.49;68.24
42001;BME280;27689;48.390;10.856;2023-03-11T05:41:37;95129.34;;;0.45;68.38
42001;BME280;27689;48.390;10.856;2023-03-11T05:44:21;95132.47;;;0.37;68.95
42001;BME280;27689;48.390;10.856;2023-03-11T05:47:05;95132.63;;;0.47;67.98
42001;BME280;27689;48.390;10.856;2023-03-11T05:49:49;95138.94;;;0.43;68.55
42001;BME280;27689;48.390;10.856;2023-03-11T05:52:33;95135.44;;;0.44;68.68
42001;BME280;27689;48.390;10.856;2023-03-11T05:55:17;95126.19;;;0.41;68.41
42001;BME280;27689;48.390;10.856;2023-03-11T05:58:01;95137.53;;;0.39;68.83
42001;BME280;27689;48.390;10.856;2023-03-11T06:00:45;95147.94;;;0.37;68.75
42001;BME280;27689;48.390;10.856;2023-03-11T06:03:29;95140.31;;;0.35;68.95
42001;BME280;27689;48.390;10.856;2023-03-11T06:06:13;95155.34;;;0.42;69.04
42001;BME280;27689;48.390;10.856;2023-03-11T06:08:57;95160.31;;;0.32;69.84
42001;BME280;27689;48.390;10.856;2023-03-11T06:11:41;95159.06;;;0.38;69.66
42001;BME280;27689;48.390;10.856;2023-03-11T06:14:25;95146.19;;;0.38;69.70
42001;BME280;27689;48.390;10.856;2023-03-11T06:17:11;95144.53;;;0.37;70.11
42001;BME280;27689;48.390;10.856;2023-03-11T06:19:55;95148.84;;;0.36;70.18
42001;BME280;27689;48.390;10.856;2023-03-11T06:22:39;95143.88;;;0.22;71.11
42001;BME280;27689;48.390;10.856;2023-03-11T06:25:23;95140.25;;;0.24;71.26
42001;BME280;27689;48.390;10.856;2023-03-11T06:28:08;95141.19;;;0.23;71.86
42001;BME280;27689;48.390;10.856;2023-03-11T06:30:53;95154.13;;;0.34;70.88
42001;BME280;27689;48.390;10.856;2023-03-11T06:33:39;95156.59;;;0.36;70.87
42001;BME280;27689;48.390;10.856;2023-03-11T06:36:23;95170.03;;;0.28;71.45
42001;BME280;27689;48.390;10.856;2023-03-11T06:39:11;95169.47;;;0.36;71.52
42001;BME280;27689;48.390;10.856;2023-03-11T06:41:55;95171.44;;;0.32;71.46
42001;BME280;27689;48.390;10.856;2023-03-11T06:44:39;95177.41;;;0.33;72.03
42001;BME280;27689;48.390;10.856;2023-03-11T06:47:23;95185.63;;;0.38;71.28
42001;BME280;27689;48.390;10.856;2023-03-11T06:50:07;95188.47;;;0.46;70.81
42001;BME280;27689;48.390;10.856;2023-03-11T06:52:52;95185.59;;;0.51;70.71
42001;BME280;27689;48.390;10.856;2023-03-11T06:55:35;95189.59;;;0.55;70.10
42001;BME280;27689;48.390;10.856;2023-03-11T06:58:19;95188.78;;;0.54;69.55
42001;BME280;27689;48.390;10.856;2023-03-11T07:01:06;95186.41;;;0.51;69.89
42001;BME280;27689;48.390;10.856;2023-03-11T07:03:51;95185.59;;;0.51;69.84
42001;BME280;27689;48.390;10.856;2023-03-11T07:06:35;95190.03;;;0.49;69.71
42001;BME280;27689;48.390;10.856;2023-03-11T07:09:19;95210.25;;;0.42;70.01
42001;BME280;27689;48.390;10.856;2023-03-11T07:12:05;95218.19;;;0.39;70.24
42001;BME280;27689;48.390;10.856;2023-03-11T07:14:53;95222.63;;;0.37;70.57
42001;BME280;27689;48.390;10.856;2023-03-11T07:17:38;95226.59;;;0.54;70.01
42001;BME280;27689;48.390;10.856;2023-03-11T07:20:21;95217.22;;;0.53;69.87
42001;BME280;27689;48.390;10.856;2023-03-11T07:23:05;95213.16;;;0.61;69.61
42001;BME280;27689;48.390;10.856;2023-03-11T07:25:49;95229.03;;;0.68;69.70
42001;BME280;27689;48.390;10.856;2023-03-11T07:28:36;95219.69;;;0.78;68.30
42001;BME280;27689;48.390;10.856;2023-03-11T07:31:24;95228.09;;;0.93;67.54
42001;BME280;27689;48.390;10.856;2023-03-11T07:34:11;95239.72;;;0.98;65.84
42001;BME280;27689;48.390;10.856;2023-03-11T07:36:55;95232.34;;;1.05;65.74
42001;BME280;27689;48.390;10.856;2023-03-11T07:39:39;95236.09;;;1.01;65.17
42001;BME280;27689;48.390;10.856;2023-03-11T07:42:22;95235.50;;;0.97;64.92
42001;BME280;27689;48.390;10.856;2023-03-11T07:45:07;95241.63;;;1.08;64.93
42001;BME280;27689;48.390;10.856;2023-03-11T07:47:51;95236.41;;;1.20;63.87
42001;BME280;27689;48.390;10.856;2023-03-11T07:50:35;95249.47;;;1.30;62.47
42001;BME280;27689;48.390;10.856;2023-03-11T07:53:18;95238.22;;;1.31;62.80
42001;BME280;27689;48.390;10.856;2023-03-11T07:56:03;95245.97;;;1.31;63.60
42001;BME280;27689;48.390;10.856;2023-03-11T07:58:47;95251.16;;;1.42;63.30
42001;BME280;27689;48.390;10.856;2023-03-11T08:01:32;95247.03;;;1.39;63.60
42001;BME280;27689;48.390;10.856;2023-03-11T08:04:19;95252.31;;;1.49;64.31
42001;BME280;27689;48.390;10.856;2023-03-11T08:07:03;95256.81;;;1.58;60.43
42001;BME280;27689;48.390;10.856;2023-03-11T08:09:47;95256.34;;;1.64;60.11
42001;BME280;27689;48.390;10.856;2023-03-11T08:12:31;95253.44;;;1.58;60.59
42001;BME280;27689;48.390;10.856;2023-03-11T08:15:15;95259.31;;;1.60;60.55
42001;BME280;27689;48.390;10.856;2023-03-11T08:17:59;95274.44;;;1.64;62.11
42001;BME280;27689;48.390;10.856;2023-03-11T08:20:43;95272.84;;;1.74;61.98
42001;BME280;27689;48.390;10.856;2023-03-11T08:23:28;95279.06;;;1.83;61.60
42001;BME280;27689;48.390;10.856;2023-03-11T08:26:20;95275.75;;;1.81;61.85
42001;BME280;27689;48.390;10.856;2023-03-11T08:29:07;95271.63;;;1.78;61.29
42001;BME280;27689;48.390;10.856;2023-03-11T08:31:51;95267.44;;;1.77;62.14
42001;BME280;27689;48.390;10.856;2023-03-11T08:34:36;95291.38;;;1.80;61.87
42001;BME280;27689;48.390;10.856;2023-03-11T08:37:22;95289.06;;;1.88;61.21
42001;BME280;27689;48.390;10.856;2023-03-11T08:40:06;95292.56;;;1.87;60.52
42001;BME280;27689;48.390;10.856;2023-03-11T08:42:54;95296.47;;;1.92;59.92
42001;BME280;27689;48.390;10.856;2023-03-11T08:45:41;95307.53;;;2.05;59.37
42001;BME280;27689;48.390;10.856;2023-03-11T08:48:25;95314.00;;;2.22;59.73
42001;BME280;27689;48.390;10.856;2023-03-11T08:51:11;95306.38;;;2.43;58.02
42001;BME280;27689;48.390;10.856;2023-03-11T08:53:56;95310.25;;;2.48;58.13
42001;BME280;27689;48.390;10.856;2023-03-11T08:56:40;95306.34;;;2.88;59.13
42001;BME280;27689;48.390;10.856;2023-03-11T08:59:24;95316.41;;;3.02;56.44
42001;BME280;27689;48.390;10.856;2023-03-11T09:02:09;95312.78;;;3.04;57.03
42001;BME280;27689;48.390;10.856;2023-03-11T09:04:53;95302.78;;;3.11;56.58
42001;BME280;27689;48.390;10.856;2023-03-11T09:07:37;95305.41;;;3.32;56.00
42001;BME280;27689;48.390;10.856;2023-03-11T09:10:21;95312.47;;;3.30;55.67
42001;BME280;27689;48.390;10.856;2023-03-11T09:13:05;95316.69;;;3.31;55.12
42001;BME280;27689;48.390;10.856;2023-03-11T09:15:50;95307.13;;;3.10;56.61
42001;BME280;27689;48.390;10.856;2023-03-11T09:18:34;95314.81;;;3.33;56.53
42001;BME280;27689;48.390;10.856;2023-03-11T09:21:18;95311.69;;;3.18;55.59
42001;BME280;27689;48.390;10.856;2023-03-11T09:24:03;95311.22;;;3.13;55.77
42001;BME280;27689;48.390;10.856;2023-03-11T09:26:47;95300.81;;;2.92;57.10
42001;BME280;27689;48.390;10.856;2023-03-11T09:29:31;95317.38;;;2.90;57.71
42001;BME280;27689;48.390;10.856;2023-03-11T09:32:15;95313.94;;;3.00;57.17
42001;BME280;27689;48.390;10.856;2023-03-11T09:34:59;95308.78;;;3.11;57.66
42001;BME280;27689;48.390;10.856;2023-03-11T09:37:43;95309.53;;;3.34;57.14
42001;BME280;27689;48.390;10.856;2023-03-11T09:40:38;95316.41;;;3.56;56.56
42001;BME280;27689;48.390;10.856;2023-03-11T09:50:12;95340.94;;;3.41;54.85
42001;BME280;27689;48.390;10.856;2023-03-11T09:56:15;95324.81;;;3.69;54.26
42001;BME280;27689;48.390;10.856;2023-03-11T09:59:25;95329.53;;;3.64;55.11
42001;BME280;27689;48.390;10.856;2023-03-11T10:02:18;95327.28;;;3.71;54.06
42001;BME280;27689;48.390;10.856;2023-03-11T10:05:12;95342.38;;;3.66;53.92
42001;BME280;27689;48.390;10.856;2023-03-11T10:08:10;95341.50;;;3.76;52.71
42001;BME280;27689;48.390;10.856;2023-03-11T10:11:50;95348.44;;;3.76;52.34
42001;BME280;27689;48.390;10.856;2023-03-11T10:20:37;95342.53;;;3.42;54.09
42001;BME280;27689;48.390;10.856;2023-03-11T10:26:44;95341.66;;;3.32;55.90
42001;BME280;27689;48.390;10.856;2023-03-11T10:29:52;95332.06;;;3.43;54.20
42001;BME280;27689;48.390;10.856;2023-03-11T10:32:45;95348.22;;;3.36;52.85
42001;BME280;27689;48.390;10.856;2023-03-11T10:35:42;95349.38;;;3.43;52.90
42001;BME280;27689;48.390;10.856;2023-03-11T10:38:41;95354.31;;;3.46;52.07
42001;BME280;27689;48.390;10.856;2023-03-11T10:41:40;95356.47;;;3.41;52.63
42001;BME280;27689;48.390;10.856;2023-03-11T10:44:31;95352.66;;;3.45;51.54
42001;BME280;27689;48.390;10.856;2023-03-11T10:47:19;95354.44;;;3.44;49.67
42001;BME280;27689;48.390;10.856;2023-03-11T10:50:03;95363.69;;;3.26;50.35
42001;BME280;27689;48.390;10.856;2023-03-11T10:53:09;95363.78;;;3.13;50.41
42001;BME280;27689;48.390;10.856;2023-03-11T10:55:55;95362.59;;;3.29;51.54
42001;BME280;27689;48.390;10.856;2023-03-11T10:58:47;95354.66;;;3.41;52.02
42001;BME280;27689;48.390;10.856;2023-03-11T11:01:31;95365.72;;;3.43;51.85
42001;BME280;27689;48.390;10.856;2023-03-11T11:04:26;95362.06;;;3.46;52.59
42001;BME280;27689;48.390;10.856;2023-03-11T11:07:32;95362.94;;;3.35;51.59
42001;BME280;27689;48.390;10.856;2023-03-11T11:10:21;95358.81;;;3.33;52.18
42001;BME280;27689;48.390;10.856;2023-03-11T11:16:00;95345.56;;;4.11;51.71
42001;BME280;27689;48.390;10.856;2023-03-11T11:19:01;95340.91;;;4.56;51.06
42001;BME280;27689;48.390;10.856;2023-03-11T11:21:48;95342.09;;;4.73;48.45
42001;BME280;27689;48.390;10.856;2023-03-11T11:24:32;95347.28;;;4.73;48.59
42001;BME280;27689;48.390;10.856;2023-03-11T11:27:18;95335.63;;;4.97;48.94
42001;BME280;27689;48.390;10.856;2023-03-11T11:33:24;95327.91;;;5.26;47.68
42001;BME280;27689;48.390;10.856;2023-03-11T11:36:13;95325.34;;;5.55;48.70
42001;BME280;27689;48.390;10.856;2023-03-11T11:39:00;95333.97;;;5.65;47.59
42001;BME280;27689;48.390;10.856;2023-03-11T11:41:48;95343.94;;;5.70;47.80
42001;BME280;27689;48.390;10.856;2023-03-11T11:44:33;95325.75;;;5.80;46.11
42001;BME280;27689;48.390;10.856;2023-03-11T11:47:21;95333.00;;;5.57;46.51
42001;BME280;27689;48.390;10.856;2023-03-11T11:50:15;95327.34;;;5.13;47.70
42001;BME280;27689;48.390;10.856;2023-03-11T11:53:18;95334.75;;;5.27;46.83
42001;BME280;27689;48.390;10.856;2023-03-11T11:56:04;95324.91;;;4.81;48.13
42001;BME280;27689;48.390;10.856;2023-03-11T11:58:48;95334.50;;;4.60;49.55
42001;BME280;27689;48.390;10.856;2023-03-11T12:01:39;95330.13;;;4.60;50.05
42001;BME280;27689;48.390;10.856;2023-03-11T12:11:05;95328.47;;;4.90;50.59
42001;BME280;27689;48.390;10.856;2023-03-11T12:17:00;95327.50;;;5.41;48.53
42001;BME280;27689;48.390;10.856;2023-03-11T12:19:52;95320.41;;;5.52;47.09
42001;BME280;27689;48.390;10.856;2023-03-11T12:31:36;95310.88;;;6.01;46.44
42001;BME280;27689;48.390;10.856;2023-03-11T12:34:22;95310.44;;;5.57;46.17
42001;BME280;27689;48.390;10.856;2023-03-11T12:37:12;95303.84;;;5.15;46.84
42001;BME280;27689;48.390;10.856;2023-03-11T12:39:57;95308.84;;;5.07;48.67
42001;BME280;27689;48.390;10.856;2023-03-11T12:42:41;95299.47;;;5.15;49.03
42001;BME280;27689;48.390;10.856;2023-03-11T12:45:51;95295.47;;;5.02;48.56
42001;BME280;27689;48.390;10.856;2023-03-11T12:48:47;95299.63;;;5.43;47.10
42001;BME280;27689;48.390;10.856;2023-03-11T12:54:30;95300.47;;;5.43;48.29
42001;BME280;27689;48.390;10.856;2023-03-11T13:00:31;95303.13;;;5.03;48.87
42001;BME280;27689;48.390;10.856;2023-03-11T13:06:43;95299.25;;;4.88;47.96
42001;BME280;27689;48.390;10.856;2023-03-11T13:09:35;95296.53;;;4.89;47.86
42001;BME280;27689;48.390;10.856;2023-03-11T13:12:39;95303.78;;;4.55;48.66
42001;BME280;27689;48.390;10.856;2023-03-11T13:15:34;95298.25;;;4.39;50.10
42001;BME280;27689;48.390;10.856;2023-03-11T13:18:23;95304.88;;;4.63;50.08
42001;BME280;27689;48.390;10.856;2023-03-11T13:27:21;95310.06;;;6.00;46.77
42001;BME280;27689;48.390;10.856;2023-03-11T13:30:19;95302.78;;;6.14;45.50
42001;BME280;27689;48.390;10.856;2023-03-11T13:36:23;95304.16;;;5.60;46.45
42001;BME280;27689;48.390;10.856;2023-03-11T13:42:47;95310.94;;;5.22;47.18
42001;BME280;27689;48.390;10.856;2023-03-11T13:45:39;95318.47;;;5.16;47.34
42001;BME280;27689;48.390;10.856;2023-03-11T13:48:29;95312.66;;;4.93;47.90
42001;BME280;27689;48.390;10.856;2023-03-11T13:51:37;95309.53;;;4.99;49.62
42001;BME280;27689;48.390;10.856;2023-03-11T13:54:34;95308.72;;;5.08;48.60
42001;BME280;27689;48.390;10.856;2023-03-11T13:57:26;95306.19;;;5.27;49.35
42001;BME280;27689;48.390;10.856;2023-03-11T14:00:17;95308.25;;;5.53;49.79
42001;BME280;27689;48.390;10.856;2023-03-11T14:03:10;95309.63;;;5.57;46.17
42001;BME280;27689;48.390;10.856;2023-03-11T14:06:07;95307.56;;;5.51;47.68
42001;BME280;27689;48.390;10.856;2023-03-11T14:08:55;95320.44;;;5.62;44.46
42001;BME280;27689;48.390;10.856;2023-03-11T14:11:41;95312.34;;;5.55;43.82
42001;BME280;27689;48.390;10.856;2023-03-11T14:17:20;95314.53;;;5.41;45.26
42001;BME280;27689;48.390;10.856;2023-03-11T14:20:19;95320.22;;;5.15;46.38
42001;BME280;27689;48.390;10.856;2023-03-11T14:23:16;95316.13;;;5.22;47.38
42001;BME280;27689;48.390;10.856;2023-03-11T14:26:05;95324.22;;;5.19;47.28
42001;BME280;27689;48.390;10.856;2023-03-11T14:28:52;95317.50;;;5.17;47.21
42001;BME280;27689;48.390;10.856;2023-03-11T14:31:39;95326.94;;;5.18;47.94
42001;BME280;27689;48.390;10.856;2023-03-11T14:34:26;95329.94;;;5.23;49.48
42001;BME280;27689;48.390;10.856;2023-03-11T14:37:24;95331.41;;;5.06;49.93
42001;BME280;27689;48.390;10.856;2023-03-11T14:40:26;95341.66;;;5.08;49.35
42001;BME280;27689;48.390;10.856;2023-03-11T14:43:11;95328.41;;;5.01;51.36
42001;BME280;27689;48.390;10.856;2023-03-11T14:45:55;95343.16;;;5.10;49.68
42001;BME280;27689;48.390;10.856;2023-03-11T14:48:40;95337.59;;;5.15;48.93
42001;BME280;27689;48.390;10.856;2023-03-11T14:51:29;95346.56;;;5.01;48.52
42001;BME280;27689;48.390;10.856;2023-03-11T14:54:19;95339.03;;;4.98;48.72
42001;BME280;27689;48.390;10.856;2023-03-11T14:57:30;95334.22;;;4.93;48.34
42001;BME280;27689;48.390;10.856;2023-03-11T15:00:23;95346.56;;;5.01;48.86
42001;BME280;27689;48.390;10.856;2023-03-11T15:03:32;95344.59;;;4.93;49.24
42001;BME280;27689;48.390;10.856;2023-03-11T15:06:19;95339.41;;;4.93;49.62
42001;BME280;27689;48.390;10.856;2023-03-11T15:09:26;95328.47;;;4.90;49.66
42001;BME280;27689;48.390;10.856;2023-03-11T15:12:32;95342.44;;;4.99;47.01
42001;BME280;27689;48.390;10.856;2023-03-11T15:15:21;95340.09;;;4.86;48.52
42001;BME280;27689;48.390;10.856;2023-03-11T15:18:29;95341.16;;;4.83;49.34
42001;BME280;27689;48.390;10.856;2023-03-11T15:21:17;95345.19;;;4.97;48.58
42001;BME280;27689;48.390;10.856;2023-03-11T15:24:03;95349.97;;;5.02;48.68
42001;BME280;27689;48.390;10.856;2023-03-11T15:27:06;95346.69;;;5.00;46.85
42001;BME280;27689;48.390;10.856;2023-03-11T15:30:21;95357.19;;;4.88;47.25
42001;BME280;27689;48.390;10.856;2023-03-11T15:33:30;95355.22;;;4.81;46.98
42001;BME280;27689;48.390;10.856;2023-03-11T15:36:33;95349.59;;;4.76;46.68
42001;BME280;27689;48.390;10.856;2023-03-11T15:42:12;95344.84;;;4.81;48.70
42001;BME280;27689;48.390;10.856;2023-03-11T15:45:10;95331.44;;;4.76;50.79
42001;BME280;27689;48.390;10.856;2023-03-11T15:48:03;95336.22;;;4.71;51.37
42001;BME280;27689;48.390;10.856;2023-03-11T15:51:03;95347.53;;;4.70;51.59
42001;BME280;27689;48.390;10.856;2023-03-11T15:53:54;95357.91;;;4.70;51.83
42001;BME280;27689;48.390;10.856;2023-03-11T15:56:42;95364.16;;;4.67;51.99
42001;BME280;27689;48.390;10.856;2023-03-11T15:59:37;95361.81;;;4.64;51.72
42001;BME280;27689;48.390;10.856;2023-03-11T16:02:28;95353.78;;;4.67;50.92